Fairdale, Kentucky
Current Conditions -  °F | °C
As of 9:56 PM on Sunday 23 Nov 2014 (Local Time) from KSDF Reporting Station
Light Rain Light Rain  
Wind Chill: 60°   Ceiling: 2200
Heat Index: 60°   Visibility: 10mi
Dew Point: 55°   Wind: 14mph
Humidity: 83%   Direction: 170°S
Pressure: 29.3"   Gusts: 28mph
Location:  38.1°N, 85.76°W
Report Text: KSDF 240256Z 17012G24KT 10SM -RA OVC022 16/13 A2930 RMK AO2 RAE26B49 SLP918 P0001 60010 T01560128 56035 $
Loading
Personal Weather Stations






























Interactive Weather Map New forecast layout! Learn more

10-Day Weather Forecast

Advertisements
Track Severe Weather on mobile